sensor_id;sensor_type;location;lat;lon;timestamp;temperature;humidity
15713;DHT22;7957;51.608;6.916;2022-10-12T00:01:47;8.20;99.90
15713;DHT22;7957;51.608;6.916;2022-10-12T00:04:15;8.20;99.90
15713;DHT22;7957;51.608;6.916;2022-10-12T00:06:42;8.20;99.90
15713;DHT22;7957;51.608;6.916;2022-10-12T00:09:09;8.20;99.90
15713;DHT22;7957;51.608;6.916;2022-10-12T00:11:37;8.20;99.90
15713;DHT22;7957;51.608;6.916;2022-10-12T00:14:05;8.20;99.90
15713;DHT22;7957;51.608;6.916;2022-10-12T00:16:32;8.20;99.90
15713;DHT22;7957;51.608;6.916;2022-10-12T00:18:59;8.10;99.90
15713;DHT22;7957;51.608;6.916;2022-10-12T00:21:29;8.10;99.90
15713;DHT22;7957;51.608;6.916;2022-10-12T00:23:56;8.10;99.90
15713;DHT22;7957;51.608;6.916;2022-10-12T00:26:24;8.10;99.90
15713;DHT22;7957;51.608;6.916;2022-10-12T00:28:54;8.10;99.90
15713;DHT22;7957;51.608;6.916;2022-10-12T00:31:22;8.00;99.90
15713;DHT22;7957;51.608;6.916;2022-10-12T00:33:49;8.00;99.90
15713;DHT22;7957;51.608;6.916;2022-10-12T00:36:18;8.00;99.90
15713;DHT22;7957;51.608;6.916;2022-10-12T00:38:47;8.00;99.90
15713;DHT22;7957;51.608;6.916;2022-10-12T00:41:16;8.00;99.90
15713;DHT22;7957;51.608;6.916;2022-10-12T00:43:44;8.00;99.90
15713;DHT22;7957;51.608;6.916;2022-10-12T00:46:15;8.00;99.90
15713;DHT22;7957;51.608;6.916;2022-10-12T00:48:44;8.00;99.90
15713;DHT22;7957;51.608;6.916;2022-10-12T00:51:13;8.00;99.90
15713;DHT22;7957;51.608;6.916;2022-10-12T00:53:43;7.90;99.90
15713;DHT22;7957;51.608;6.916;2022-10-12T00:56:17;7.90;99.90
15713;DHT22;7957;51.608;6.916;2022-10-12T00:58:45;7.90;99.90
15713;DHT22;7957;51.608;6.916;2022-10-12T01:01:15;7.90;98.90
15713;DHT22;7957;51.608;6.916;2022-10-12T01:03:43;7.90;93.70
15713;DHT22;7957;51.608;6.916;2022-10-12T01:06:10;7.90;94.40
15713;DHT22;7957;51.608;6.916;2022-10-12T01:08:38;7.90;92.50
15713;DHT22;7957;51.608;6.916;2022-10-12T01:11:05;7.90;95.60
15713;DHT22;7957;51.608;6.916;2022-10-12T01:13:33;7.90;95.50
15713;DHT22;7957;51.608;6.916;2022-10-12T01:16:04;7.80;91.00
15713;DHT22;7957;51.608;6.916;2022-10-12T01:18:40;7.80;93.00
15713;DHT22;7957;51.608;6.916;2022-10-12T01:21:17;7.80;91.70
15713;DHT22;7957;51.608;6.916;2022-10-12T01:24:23;7.80;88.80
15713;DHT22;7957;51.608;6.916;2022-10-12T01:30:19;7.80;86.40
15713;DHT22;7957;51.608;6.916;2022-10-12T01:33:08;7.80;93.90
15713;DHT22;7957;51.608;6.916;2022-10-12T01:35:42;7.80;92.80
15713;DHT22;7957;51.608;6.916;2022-10-12T01:38:20;7.80;87.20
15713;DHT22;7957;51.608;6.916;2022-10-12T01:40:55;7.80;90.60
15713;DHT22;7957;51.608;6.916;2022-10-12T01:43:32;7.80;93.70
15713;DHT22;7957;51.608;6.916;2022-10-12T01:46:33;7.70;99.40
15713;DHT22;7957;51.608;6.916;2022-10-12T01:48:55;7.70;93.60
15713;DHT22;7957;51.608;6.916;2022-10-12T01:51:28;7.70;80.50
15713;DHT22;7957;51.608;6.916;2022-10-12T01:54:02;7.70;62.60
15713;DHT22;7957;51.608;6.916;2022-10-12T01:56:41;7.70;45.80
15713;DHT22;7957;51.608;6.916;2022-10-12T01:59:16;7.70;26.60
15713;DHT22;7957;51.608;6.916;2022-10-12T02:01:51;7.70;3.20
15713;DHT22;7957;51.608;6.916;2022-10-12T02:04:27;7.60;1.00
15713;DHT22;7957;51.608;6.916;2022-10-12T02:07:00;7.60;1.00
15713;DHT22;7957;51.608;6.916;2022-10-12T02:09:32;7.60;1.00
15713;DHT22;7957;51.608;6.916;2022-10-12T02:12:04;7.60;1.00
15713;DHT22;7957;51.608;6.916;2022-10-12T02:14:36;7.60;1.00
15713;DHT22;7957;51.608;6.916;2022-10-12T02:17:09;7.60;1.00
15713;DHT22;7957;51.608;6.916;2022-10-12T02:19:39;7.60;1.00
15713;DHT22;7957;51.608;6.916;2022-10-12T02:22:09;7.60;1.00
15713;DHT22;7957;51.608;6.916;2022-10-12T02:24:38;7.60;1.00
15713;DHT22;7957;51.608;6.916;2022-10-12T02:27:08;7.60;1.00
15713;DHT22;7957;51.608;6.916;2022-10-12T02:29:38;7.60;1.00
15713;DHT22;7957;51.608;6.916;2022-10-12T02:32:10;7.60;1.00
15713;DHT22;7957;51.608;6.916;2022-10-12T02:34:43;7.60;1.00
15713;DHT22;7957;51.608;6.916;2022-10-12T02:37:17;7.50;1.00
15713;DHT22;7957;51.608;6.916;2022-10-12T02:39:51;7.60;1.00
15713;DHT22;7957;51.608;6.916;2022-10-12T02:42:21;7.50;1.00
15713;DHT22;7957;51.608;6.916;2022-10-12T02:44:52;7.50;1.00
15713;DHT22;7957;51.608;6.916;2022-10-12T02:47:22;7.60;1.00
15713;DHT22;7957;51.608;6.916;2022-10-12T02:49:51;7.50;1.00
15713;DHT22;7957;51.608;6.916;2022-10-12T02:52:19;7.50;1.00
15713;DHT22;7957;51.608;6.916;2022-10-12T02:54:46;7.50;1.00
15713;DHT22;7957;51.608;6.916;2022-10-12T02:57:13;7.50;1.00
15713;DHT22;7957;51.608;6.916;2022-10-12T02:59:40;7.50;1.00
15713;DHT22;7957;51.608;6.916;2022-10-12T03:02:07;7.50;1.00
15713;DHT22;7957;51.608;6.916;2022-10-12T03:04:36;7.50;1.00
15713;DHT22;7957;51.608;6.916;2022-10-12T03:07:03;7.50;1.00
15713;DHT22;7957;51.608;6.916;2022-10-12T03:09:30;7.50;1.00
15713;DHT22;7957;51.608;6.916;2022-10-12T03:11:57;7.40;1.00
15713;DHT22;7957;51.608;6.916;2022-10-12T03:14:24;7.50;1.00
15713;DHT22;7957;51.608;6.916;2022-10-12T03:16:52;7.40;1.00
15713;DHT22;7957;51.608;6.916;2022-10-12T03:19:19;7.40;1.00
15713;DHT22;7957;51.608;6.916;2022-10-12T03:21:47;7.40;1.00
15713;DHT22;7957;51.608;6.916;2022-10-12T03:24:14;7.40;1.00
15713;DHT22;7957;51.608;6.916;2022-10-12T03:26:41;7.40;1.00
15713;DHT22;7957;51.608;6.916;2022-10-12T03:29:08;7.40;1.00
15713;DHT22;7957;51.608;6.916;2022-10-12T03:31:35;7.40;1.00
15713;DHT22;7957;51.608;6.916;2022-10-12T03:34:02;7.40;1.00
15713;DHT22;7957;51.608;6.916;2022-10-12T03:36:29;7.40;1.00
15713;DHT22;7957;51.608;6.916;2022-10-12T03:38:58;7.40;1.00
15713;DHT22;7957;51.608;6.916;2022-10-12T03:41:25;7.40;1.00
15713;DHT22;7957;51.608;6.916;2022-10-12T03:43:52;7.40;1.00
15713;DHT22;7957;51.608;6.916;2022-10-12T03:46:19;7.30;1.00
15713;DHT22;7957;51.608;6.916;2022-10-12T03:48:47;7.30;1.00
15713;DHT22;7957;51.608;6.916;2022-10-12T03:51:14;7.30;1.00
15713;DHT22;7957;51.608;6.916;2022-10-12T03:53:41;7.30;1.00
15713;DHT22;7957;51.608;6.916;2022-10-12T03:56:10;7.30;1.00
15713;DHT22;7957;51.608;6.916;2022-10-12T03:58:37;7.30;1.00
15713;DHT22;7957;51.608;6.916;2022-10-12T04:01:04;7.30;1.00
15713;DHT22;7957;51.608;6.916;2022-10-12T04:03:31;7.30;1.00
15713;DHT22;7957;51.608;6.916;2022-10-12T04:05:58;7.20;1.00
15713;DHT22;7957;51.608;6.916;2022-10-12T04:08:25;7.20;1.00
15713;DHT22;7957;51.608;6.916;2022-10-12T04:10:53;7.20;1.00
15713;DHT22;7957;51.608;6.916;2022-10-12T04:13:22;7.20;1.00
15713;DHT22;7957;51.608;6.916;2022-10-12T04:15:49;7.20;1.00
15713;DHT22;7957;51.608;6.916;2022-10-12T04:18:16;7.30;1.00
15713;DHT22;7957;51.608;6.916;2022-10-12T04:20:46;7.30;1.00
15713;DHT22;7957;51.608;6.916;2022-10-12T04:23:13;7.30;1.00
15713;DHT22;7957;51.608;6.916;2022-10-12T04:25:40;7.20;1.00
15713;DHT22;7957;51.608;6.916;2022-10-12T04:28:07;7.30;1.00
15713;DHT22;7957;51.608;6.916;2022-10-12T04:30:35;7.30;1.00
15713;DHT22;7957;51.608;6.916;2022-10-12T04:33:02;7.30;1.00
15713;DHT22;7957;51.608;6.916;2022-10-12T04:35:29;7.30;1.00
15713;DHT22;7957;51.608;6.916;2022-10-12T04:37:56;7.30;1.00
15713;DHT22;7957;51.608;6.916;2022-10-12T04:40:24;7.30;1.00
15713;DHT22;7957;51.608;6.916;2022-10-12T04:42:51;7.30;1.00
15713;DHT22;7957;51.608;6.916;2022-10-12T04:45:17;7.30;1.00
15713;DHT22;7957;51.608;6.916;2022-10-12T04:47:46;7.30;1.00
15713;DHT22;7957;51.608;6.916;2022-10-12T04:50:14;7.30;1.00
15713;DHT22;7957;51.608;6.916;2022-10-12T04:52:41;7.30;1.00
15713;DHT22;7957;51.608;6.916;2022-10-12T04:55:08;7.30;1.00
15713;DHT22;7957;51.608;6.916;2022-10-12T04:57:35;7.30;1.00
15713;DHT22;7957;51.608;6.916;2022-10-12T05:00:03;7.30;1.00
15713;DHT22;7957;51.608;6.916;2022-10-12T05:02:30;7.30;1.00
15713;DHT22;7957;51.608;6.916;2022-10-12T05:04:58;7.30;1.00
15713;DHT22;7957;51.608;6.916;2022-10-12T05:07:25;7.20;1.00
15713;DHT22;7957;51.608;6.916;2022-10-12T05:09:52;7.20;1.00
15713;DHT22;7957;51.608;6.916;2022-10-12T05:12:19;7.20;1.00
15713;DHT22;7957;51.608;6.916;2022-10-12T05:14:46;7.30;1.00
15713;DHT22;7957;51.608;6.916;2022-10-12T05:17:13;7.30;1.00
15713;DHT22;7957;51.608;6.916;2022-10-12T05:19:41;7.20;1.00
15713;DHT22;7957;51.608;6.916;2022-10-12T05:22:09;7.30;1.00
15713;DHT22;7957;51.608;6.916;2022-10-12T05:24:36;7.20;1.00
15713;DHT22;7957;51.608;6.916;2022-10-12T05:27:03;7.30;1.00
15713;DHT22;7957;51.608;6.916;2022-10-12T05:29:30;7.30;1.00
15713;DHT22;7957;51.608;6.916;2022-10-12T05:31:57;7.30;1.00
15713;DHT22;7957;51.608;6.916;2022-10-12T05:34:23;7.30;1.00
15713;DHT22;7957;51.608;6.916;2022-10-12T05:36:50;7.30;1.00
15713;DHT22;7957;51.608;6.916;2022-10-12T05:39:19;7.20;1.00
15713;DHT22;7957;51.608;6.916;2022-10-12T05:41:46;7.20;1.00
15713;DHT22;7957;51.608;6.916;2022-10-12T05:44:12;7.20;1.00
15713;DHT22;7957;51.608;6.916;2022-10-12T05:46:40;7.10;1.00
15713;DHT22;7957;51.608;6.916;2022-10-12T05:49:06;7.20;1.00
15713;DHT22;7957;51.608;6.916;2022-10-12T05:51:33;7.10;1.00
15713;DHT22;7957;51.608;6.916;2022-10-12T05:54:03;7.10;1.00
15713;DHT22;7957;51.608;6.916;2022-10-12T05:56:31;7.10;1.00
15713;DHT22;7957;51.608;6.916;2022-10-12T05:58:58;7.10;1.00
15713;DHT22;7957;51.608;6.916;2022-10-12T06:01:26;7.00;1.00
15713;DHT22;7957;51.608;6.916;2022-10-12T06:03:53;7.00;1.00
15713;DHT22;7957;51.608;6.916;2022-10-12T06:06:20;7.00;1.00
15713;DHT22;7957;51.608;6.916;2022-10-12T06:08:47;7.00;1.00
15713;DHT22;7957;51.608;6.916;2022-10-12T06:11:14;7.10;1.00
15713;DHT22;7957;51.608;6.916;2022-10-12T06:13:42;7.00;1.00
15713;DHT22;7957;51.608;6.916;2022-10-12T06:16:09;7.00;1.00
15713;DHT22;7957;51.608;6.916;2022-10-12T06:18:36;7.00;1.00
15713;DHT22;7957;51.608;6.916;2022-10-12T06:21:03;7.00;1.00
15713;DHT22;7957;51.608;6.916;2022-10-12T06:23:30;7.00;1.00
15713;DHT22;7957;51.608;6.916;2022-10-12T06:25:57;7.00;1.00
15713;DHT22;7957;51.608;6.916;2022-10-12T06:28:24;7.00;1.00
15713;DHT22;7957;51.608;6.916;2022-10-12T06:30:58;6.90;1.00
15713;DHT22;7957;51.608;6.916;2022-10-12T06:33:26;6.90;1.00
15713;DHT22;7957;51.608;6.916;2022-10-12T06:35:54;7.00;1.00
15713;DHT22;7957;51.608;6.916;2022-10-12T06:38:21;6.90;1.00
15713;DHT22;7957;51.608;6.916;2022-10-12T06:40:48;6.90;1.00
15713;DHT22;7957;51.608;6.916;2022-10-12T06:43:14;6.90;1.00
15713;DHT22;7957;51.608;6.916;2022-10-12T06:45:41;6.90;1.00
15713;DHT22;7957;51.608;6.916;2022-10-12T06:48:10;6.90;1.00
15713;DHT22;7957;51.608;6.916;2022-10-12T06:50:37;6.90;1.00
15713;DHT22;7957;51.608;6.916;2022-10-12T06:53:04;6.90;1.00
15713;DHT22;7957;51.608;6.916;2022-10-12T06:55:31;6.90;1.00
15713;DHT22;7957;51.608;6.916;2022-10-12T06:57:58;6.90;1.00
15713;DHT22;7957;51.608;6.916;2022-10-12T07:00:25;6.90;1.00
15713;DHT22;7957;51.608;6.916;2022-10-12T07:02:52;6.90;1.00
15713;DHT22;7957;51.608;6.916;2022-10-12T07:05:21;6.90;1.00
15713;DHT22;7957;51.608;6.916;2022-10-12T07:07:48;6.90;1.00
15713;DHT22;7957;51.608;6.916;2022-10-12T07:10:16;7.00;1.00
15713;DHT22;7957;51.608;6.916;2022-10-12T07:12:43;7.00;1.00
15713;DHT22;7957;51.608;6.916;2022-10-12T07:15:10;7.00;1.00
15713;DHT22;7957;51.608;6.916;2022-10-12T07:17:37;7.00;1.00
15713;DHT22;7957;51.608;6.916;2022-10-12T07:20:05;7.00;1.00
15713;DHT22;7957;51.608;6.916;2022-10-12T07:22:34;7.00;1.00
15713;DHT22;7957;51.608;6.916;2022-10-12T07:25:01;7.10;1.00
15713;DHT22;7957;51.608;6.916;2022-10-12T07:27:27;7.10;1.00
15713;DHT22;7957;51.608;6.916;2022-10-12T07:29:54;7.10;1.00
15713;DHT22;7957;51.608;6.916;2022-10-12T07:32:21;7.10;1.00
15713;DHT22;7957;51.608;6.916;2022-10-12T07:34:48;7.20;1.00
15713;DHT22;7957;51.608;6.916;2022-10-12T07:37:15;7.30;1.00
15713;DHT22;7957;51.608;6.916;2022-10-12T07:39:43;7.40;1.00
15713;DHT22;7957;51.608;6.916;2022-10-12T07:42:10;7.50;1.00
15713;DHT22;7957;51.608;6.916;2022-10-12T07:44:37;7.50;1.00
15713;DHT22;7957;51.608;6.916;2022-10-12T07:47:04;7.60;1.00
15713;DHT22;7957;51.608;6.916;2022-10-12T07:49:31;7.60;1.00
15713;DHT22;7957;51.608;6.916;2022-10-12T07:51:58;7.70;1.00
15713;DHT22;7957;51.608;6.916;2022-10-12T07:54:25;7.80;1.00
15713;DHT22;7957;51.608;6.916;2022-10-12T07:56:53;7.80;1.00
15713;DHT22;7957;51.608;6.916;2022-10-12T07:59:20;7.80;1.00
15713;DHT22;7957;51.608;6.916;2022-10-12T08:01:47;7.80;1.00
15713;DHT22;7957;51.608;6.916;2022-10-12T08:04:14;7.90;1.00
15713;DHT22;7957;51.608;6.916;2022-10-12T08:06:41;7.90;1.00
15713;DHT22;7957;51.608;6.916;2022-10-12T08:09:09;7.80;1.00
15713;DHT22;7957;51.608;6.916;2022-10-12T08:11:37;7.90;1.00
15713;DHT22;7957;51.608;6.916;2022-10-12T08:14:12;7.90;1.00
15713;DHT22;7957;51.608;6.916;2022-10-12T08:16:39;8.00;1.00
15713;DHT22;7957;51.608;6.916;2022-10-12T08:19:06;8.00;1.00
15713;DHT22;7957;51.608;6.916;2022-10-12T08:21:33;8.00;1.00
15713;DHT22;7957;51.608;6.916;2022-10-12T08:24:00;8.00;1.00
15713;DHT22;7957;51.608;6.916;2022-10-12T08:26:27;8.10;1.00
15713;DHT22;7957;51.608;6.916;2022-10-12T08:28:54;8.10;1.00
15713;DHT22;7957;51.608;6.916;2022-10-12T08:31:23;8.10;1.00
15713;DHT22;7957;51.608;6.916;2022-10-12T08:33:50;8.20;1.00
15713;DHT22;7957;51.608;6.916;2022-10-12T08:36:18;8.20;1.00
15713;DHT22;7957;51.608;6.916;2022-10-12T08:38:48;8.20;1.00
15713;DHT22;7957;51.608;6.916;2022-10-12T08:41:39;8.30;1.00
15713;DHT22;7957;51.608;6.916;2022-10-12T08:44:21;8.40;1.00
15713;DHT22;7957;51.608;6.916;2022-10-12T08:46:56;8.60;1.00
15713;DHT22;7957;51.608;6.916;2022-10-12T08:49:27;8.80;1.00
15713;DHT22;7957;51.608;6.916;2022-10-12T08:51:58;9.00;1.00
15713;DHT22;7957;51.608;6.916;2022-10-12T08:54:28;9.20;1.00
15713;DHT22;7957;51.608;6.916;2022-10-12T08:56:58;9.20;1.00
15713;DHT22;7957;51.608;6.916;2022-10-12T08:59:26;9.30;1.00
15713;DHT22;7957;51.608;6.916;2022-10-12T09:02:03;9.40;1.00
15713;DHT22;7957;51.608;6.916;2022-10-12T09:04:43;9.40;1.00
15713;DHT22;7957;51.608;6.916;2022-10-12T09:07:14;9.50;1.00
15713;DHT22;7957;51.608;6.916;2022-10-12T09:10:02;9.60;1.00
15713;DHT22;7957;51.608;6.916;2022-10-12T09:12:54;9.60;99.90
15713;DHT22;7957;51.608;6.916;2022-10-12T09:15:28;9.60;99.90
15713;DHT22;7957;51.608;6.916;2022-10-12T09:17:59;9.70;99.90
15713;DHT22;7957;51.608;6.916;2022-10-12T09:20:28;9.70;99.90
15713;DHT22;7957;51.608;6.916;2022-10-12T09:23:00;9.70;99.90
15713;DHT22;7957;51.608;6.916;2022-10-12T09:25:29;9.80;99.90
15713;DHT22;7957;51.608;6.916;2022-10-12T09:28:06;9.80;49.10
15713;DHT22;7957;51.608;6.916;2022-10-12T09:30:41;9.90;38.80
15713;DHT22;7957;51.608;6.916;2022-10-12T09:33:19;9.90;1.00
15713;DHT22;7957;51.608;6.916;2022-10-12T09:35:47;10.00;1.00
15713;DHT22;7957;51.608;6.916;2022-10-12T09:38:15;10.00;1.00
15713;DHT22;7957;51.608;6.916;2022-10-12T09:40:43;10.00;1.00
15713;DHT22;7957;51.608;6.916;2022-10-12T09:43:13;10.00;1.00
15713;DHT22;7957;51.608;6.916;2022-10-12T09:45:41;10.00;1.00
15713;DHT22;7957;51.608;6.916;2022-10-12T09:48:10;9.90;1.00
15713;DHT22;7957;51.608;6.916;2022-10-12T09:50:41;9.90;1.00
15713;DHT22;7957;51.608;6.916;2022-10-12T09:53:26;10.00;1.00
15713;DHT22;7957;51.608;6.916;2022-10-12T09:56:00;10.00;1.00
15713;DHT22;7957;51.608;6.916;2022-10-12T09:58:28;10.00;1.00
15713;DHT22;7957;51.608;6.916;2022-10-12T10:01:26;9.90;1.00
15713;DHT22;7957;51.608;6.916;2022-10-12T10:04:10;9.90;1.00
15713;DHT22;7957;51.608;6.916;2022-10-12T10:06:40;9.90;1.00
15713;DHT22;7957;51.608;6.916;2022-10-12T10:09:26;9.90;1.00
15713;DHT22;7957;51.608;6.916;2022-10-12T10:11:53;9.90;1.00
15713;DHT22;7957;51.608;6.916;2022-10-12T10:14:21;10.00;1.00
15713;DHT22;7957;51.608;6.916;2022-10-12T10:16:49;9.90;1.00
15713;DHT22;7957;51.608;6.916;2022-10-12T10:19:17;10.00;1.00
15713;DHT22;7957;51.608;6.916;2022-10-12T10:21:47;10.00;1.00
15713;DHT22;7957;51.608;6.916;2022-10-12T10:24:23;10.00;1.00
15713;DHT22;7957;51.608;6.916;2022-10-12T10:26:52;10.00;1.00
15713;DHT22;7957;51.608;6.916;2022-10-12T10:29:32;10.10;1.00
15713;DHT22;7957;51.608;6.916;2022-10-12T10:32:13;10.10;1.00
15713;DHT22;7957;51.608;6.916;2022-10-12T10:34:58;10.10;1.00
15713;DHT22;7957;51.608;6.916;2022-10-12T10:37:27;10.10;1.00
15713;DHT22;7957;51.608;6.916;2022-10-12T10:39:56;10.20;1.00
15713;DHT22;7957;51.608;6.916;2022-10-12T10:42:26;10.20;1.00
15713;DHT22;7957;51.608;6.916;2022-10-12T10:44:57;10.20;1.00
15713;DHT22;7957;51.608;6.916;2022-10-12T10:47:25;10.20;1.00
15713;DHT22;7957;51.608;6.916;2022-10-12T10:49:55;10.20;1.00
15713;DHT22;7957;51.608;6.916;2022-10-12T10:52:27;10.30;1.00
15713;DHT22;7957;51.608;6.916;2022-10-12T10:55:17;10.30;1.00
15713;DHT22;7957;51.608;6.916;2022-10-12T10:57:49;10.30;1.00
15713;DHT22;7957;51.608;6.916;2022-10-12T11:00:21;10.40;1.00
15713;DHT22;7957;51.608;6.916;2022-10-12T11:02:51;10.40;1.00
15713;DHT22;7957;51.608;6.916;2022-10-12T11:05:21;10.40;1.00
15713;DHT22;7957;51.608;6.916;2022-10-12T11:07:53;10.50;1.00
15713;DHT22;7957;51.608;6.916;2022-10-12T11:10:24;10.50;1.00
15713;DHT22;7957;51.608;6.916;2022-10-12T11:12:58;10.50;1.00
15713;DHT22;7957;51.608;6.916;2022-10-12T11:15:32;10.60;1.00
15713;DHT22;7957;51.608;6.916;2022-10-12T11:18:09;10.70;1.00
15713;DHT22;7957;51.608;6.916;2022-10-12T11:20:44;10.80;1.00
15713;DHT22;7957;51.608;6.916;2022-10-12T11:23:32;10.90;1.00
15713;DHT22;7957;51.608;6.916;2022-10-12T11:26:07;11.10;1.00
15713;DHT22;7957;51.608;6.916;2022-10-12T11:28:35;11.30;1.00
15713;DHT22;7957;51.608;6.916;2022-10-12T11:31:04;11.60;1.00
15713;DHT22;7957;51.608;6.916;2022-10-12T11:33:34;11.80;1.00
15713;DHT22;7957;51.608;6.916;2022-10-12T11:36:06;11.90;99.90
15713;DHT22;7957;51.608;6.916;2022-10-12T11:38:40;12.10;99.90
15713;DHT22;7957;51.608;6.916;2022-10-12T11:41:12;12.20;99.90
15713;DHT22;7957;51.608;6.916;2022-10-12T11:43:43;12.30;99.90
15713;DHT22;7957;51.608;6.916;2022-10-12T11:46:14;12.40;94.60
15713;DHT22;7957;51.608;6.916;2022-10-12T11:48:45;12.60;1.00
15713;DHT22;7957;51.608;6.916;2022-10-12T11:51:13;12.90;1.00
15713;DHT22;7957;51.608;6.916;2022-10-12T11:53:48;13.10;1.00
15713;DHT22;7957;51.608;6.916;2022-10-12T11:56:23;13.20;1.00
15713;DHT22;7957;51.608;6.916;2022-10-12T11:58:55;13.30;1.00
15713;DHT22;7957;51.608;6.916;2022-10-12T12:01:37;13.30;1.00
15713;DHT22;7957;51.608;6.916;2022-10-12T12:04:14;13.20;99.90
15713;DHT22;7957;51.608;6.916;2022-10-12T12:06:54;13.20;99.90
15713;DHT22;7957;51.608;6.916;2022-10-12T12:09:33;13.20;99.90
15713;DHT22;7957;51.608;6.916;2022-10-12T12:12:22;13.20;99.90
15713;DHT22;7957;51.608;6.916;2022-10-12T12:15:18;13.20;99.90
15713;DHT22;7957;51.608;6.916;2022-10-12T12:18:09;13.30;99.90
15713;DHT22;7957;51.608;6.916;2022-10-12T12:21:00;13.30;99.90
15713;DHT22;7957;51.608;6.916;2022-10-12T12:23:28;13.40;99.90
15713;DHT22;7957;51.608;6.916;2022-10-12T12:26:12;13.40;99.90
15713;DHT22;7957;51.608;6.916;2022-10-12T12:28:41;13.50;99.90
15713;DHT22;7957;51.608;6.916;2022-10-12T12:31:12;13.60;99.90
15713;DHT22;7957;51.608;6.916;2022-10-12T12:33:41;13.60;37.50
15713;DHT22;7957;51.608;6.916;2022-10-12T12:36:12;13.60;19.10
15713;DHT22;7957;51.608;6.916;2022-10-12T12:38:46;13.70;1.00
15713;DHT22;7957;51.608;6.916;2022-10-12T12:41:16;13.70;1.00
15713;DHT22;7957;51.608;6.916;2022-10-12T12:43:55;13.70;1.00
15713;DHT22;7957;51.608;6.916;2022-10-12T12:46:25;13.70;1.00
15713;DHT22;7957;51.608;6.916;2022-10-12T12:49:24;13.80;1.00
15713;DHT22;7957;51.608;6.916;2022-10-12T12:51:53;13.80;1.00
15713;DHT22;7957;51.608;6.916;2022-10-12T12:54:23;13.80;1.00
15713;DHT22;7957;51.608;6.916;2022-10-12T12:57:10;13.70;1.00
15713;DHT22;7957;51.608;6.916;2022-10-12T13:00:03;13.60;1.00
15713;DHT22;7957;51.608;6.916;2022-10-12T13:09:20;13.50;1.00
15713;DHT22;7957;51.608;6.916;2022-10-12T13:12:02;13.40;1.00
15713;DHT22;7957;51.608;6.916;2022-10-12T13:14:42;13.30;1.00
15713;DHT22;7957;51.608;6.916;2022-10-12T13:17:41;13.40;1.00
15713;DHT22;7957;51.608;6.916;2022-10-12T13:20:16;13.40;1.00
15713;DHT22;7957;51.608;6.916;2022-10-12T13:22:46;13.40;1.00
15713;DHT22;7957;51.608;6.916;2022-10-12T13:25:22;13.40;1.00
15713;DHT22;7957;51.608;6.916;2022-10-12T13:27:53;13.40;1.00
15713;DHT22;7957;51.608;6.916;2022-10-12T13:30:27;13.50;1.00
15713;DHT22;7957;51.608;6.916;2022-10-12T13:33:01;13.60;1.00
15713;DHT22;7957;51.608;6.916;2022-10-12T13:35:32;13.70;1.00
15713;DHT22;7957;51.608;6.916;2022-10-12T13:38:01;13.70;1.00
15713;DHT22;7957;51.608;6.916;2022-10-12T13:40:30;13.60;1.00
15713;DHT22;7957;51.608;6.916;2022-10-12T13:43:17;13.60;1.00
15713;DHT22;7957;51.608;6.916;2022-10-12T13:45:45;13.60;1.00
15713;DHT22;7957;51.608;6.916;2022-10-12T13:48:16;13.60;1.00
15713;DHT22;7957;51.608;6.916;2022-10-12T13:50:50;13.50;1.00
15713;DHT22;7957;51.608;6.916;2022-10-12T13:53:17;13.60;1.00
15713;DHT22;7957;51.608;6.916;2022-10-12T13:55:56;13.60;1.00
15713;DHT22;7957;51.608;6.916;2022-10-12T13:58:27;13.60;1.00
15713;DHT22;7957;51.608;6.916;2022-10-12T14:00:55;13.50;1.00
15713;DHT22;7957;51.608;6.916;2022-10-12T14:03:26;13.60;1.00
15713;DHT22;7957;51.608;6.916;2022-10-12T14:05:59;13.60;1.00
15713;DHT22;7957;51.608;6.916;2022-10-12T14:08:27;13.50;1.00
15713;DHT22;7957;51.608;6.916;2022-10-12T14:10:57;13.50;1.00
15713;DHT22;7957;51.608;6.916;2022-10-12T14:13:29;13.50;1.00
15713;DHT22;7957;51.608;6.916;2022-10-12T14:15:58;13.40;1.00
15713;DHT22;7957;51.608;6.916;2022-10-12T14:18:36;13.40;1.00
15713;DHT22;7957;51.608;6.916;2022-10-12T14:21:13;13.30;1.00
15713;DHT22;7957;51.608;6.916;2022-10-12T14:23:43;13.40;1.00
15713;DHT22;7957;51.608;6.916;2022-10-12T14:26:21;13.30;1.00
15713;DHT22;7957;51.608;6.916;2022-10-12T14:28:50;13.30;1.00
15713;DHT22;7957;51.608;6.916;2022-10-12T14:31:17;13.20;1.00
15713;DHT22;7957;51.608;6.916;2022-10-12T14:33:44;13.20;1.00
15713;DHT22;7957;51.608;6.916;2022-10-12T14:36:14;13.20;1.00
15713;DHT22;7957;51.608;6.916;2022-10-12T14:38:42;13.10;1.00
15713;DHT22;7957;51.608;6.916;2022-10-12T14:41:32;13.10;1.00
15713;DHT22;7957;51.608;6.916;2022-10-12T14:44:11;13.10;1.00
15713;DHT22;7957;51.608;6.916;2022-10-12T14:46:40;13.00;1.00
15713;DHT22;7957;51.608;6.916;2022-10-12T14:49:14;13.00;1.00
15713;DHT22;7957;51.608;6.916;2022-10-12T14:51:42;13.00;3.20
15713;DHT22;7957;51.608;6.916;2022-10-12T14:54:10;13.00;34.00
15713;DHT22;7957;51.608;6.916;2022-10-12T14:56:37;13.00;77.20
15713;DHT22;7957;51.608;6.916;2022-10-12T14:59:04;12.90;99.90
15713;DHT22;7957;51.608;6.916;2022-10-12T15:01:32;12.90;99.90
15713;DHT22;7957;51.608;6.916;2022-10-12T15:03:59;12.90;99.90
15713;DHT22;7957;51.608;6.916;2022-10-12T15:06:26;12.80;99.90
15713;DHT22;7957;51.608;6.916;2022-10-12T15:08:53;12.90;99.90
15713;DHT22;7957;51.608;6.916;2022-10-12T15:11:20;12.80;99.90
15713;DHT22;7957;51.608;6.916;2022-10-12T15:13:46;12.80;99.90
15713;DHT22;7957;51.608;6.916;2022-10-12T15:16:18;12.70;99.90
15713;DHT22;7957;51.608;6.916;2022-10-12T15:18:47;12.70;99.90
15713;DHT22;7957;51.608;6.916;2022-10-12T15:21:14;12.70;99.90
15713;DHT22;7957;51.608;6.916;2022-10-12T15:23:42;12.70;99.90
15713;DHT22;7957;51.608;6.916;2022-10-12T15:26:11;12.60;99.90
15713;DHT22;7957;51.608;6.916;2022-10-12T15:28:39;12.60;1.00
15713;DHT22;7957;51.608;6.916;2022-10-12T15:31:06;12.60;1.00
15713;DHT22;7957;51.608;6.916;2022-10-12T15:33:33;12.60;1.00
15713;DHT22;7957;51.608;6.916;2022-10-12T15:36:01;12.50;1.00
15713;DHT22;7957;51.608;6.916;2022-10-12T15:38:28;12.50;1.00
15713;DHT22;7957;51.608;6.916;2022-10-12T15:40:55;12.50;1.00
15713;DHT22;7957;51.608;6.916;2022-10-12T15:43:22;12.50;1.00
15713;DHT22;7957;51.608;6.916;2022-10-12T15:45:49;12.40;1.00
15713;DHT22;7957;51.608;6.916;2022-10-12T15:48:16;12.40;1.00
15713;DHT22;7957;51.608;6.916;2022-10-12T15:50:46;12.40;1.00
15713;DHT22;7957;51.608;6.916;2022-10-12T15:53:15;12.30;1.00
15713;DHT22;7957;51.608;6.916;2022-10-12T15:55:42;12.30;1.00
15713;DHT22;7957;51.608;6.916;2022-10-12T15:58:09;12.20;1.00
15713;DHT22;7957;51.608;6.916;2022-10-12T16:00:36;12.20;1.00
15713;DHT22;7957;51.608;6.916;2022-10-12T16:03:03;12.20;24.00
15713;DHT22;7957;51.608;6.916;2022-10-12T16:05:32;12.20;85.40
15713;DHT22;7957;51.608;6.916;2022-10-12T16:08:00;12.20;99.90
15713;DHT22;7957;51.608;6.916;2022-10-12T16:10:30;12.10;99.90
15713;DHT22;7957;51.608;6.916;2022-10-12T16:12:58;12.10;99.90
15713;DHT22;7957;51.608;6.916;2022-10-12T16:15:28;12.10;99.90
15713;DHT22;7957;51.608;6.916;2022-10-12T16:17:56;12.00;99.90
15713;DHT22;7957;51.608;6.916;2022-10-12T16:20:24;12.00;99.90
15713;DHT22;7957;51.608;6.916;2022-10-12T16:22:51;12.00;99.90
15713;DHT22;7957;51.608;6.916;2022-10-12T16:25:20;12.00;99.90
15713;DHT22;7957;51.608;6.916;2022-10-12T16:27:51;11.90;99.90
15713;DHT22;7957;51.608;6.916;2022-10-12T16:30:18;11.90;99.90
15713;DHT22;7957;51.608;6.916;2022-10-12T16:32:45;11.90;99.90
15713;DHT22;7957;51.608;6.916;2022-10-12T16:35:13;11.90;1.00
15713;DHT22;7957;51.608;6.916;2022-10-12T16:37:40;11.80;1.00
15713;DHT22;7957;51.608;6.916;2022-10-12T16:40:08;11.80;1.00